Peterstown, West Virginia
Current Conditions -  °F | °C
As of 3:35 AM on Monday 24 Nov 2014 (Local Time) from KPSK Reporting Station
Scattered Clouds Scattered Clouds  
Wind Chill: 54°   Ceiling: Unl
Heat Index: 54°   Visibility: 10mi
Dew Point: 52°   Wind: 6mph
Humidity: 95%   Direction: 210°SSW
Pressure: 29.68"   Gusts: NA
Location:  37.4°N, 80.8°W
Report Text: KPSK 240835Z AUTO 21005KT 10SM SCT045 12/11 A2968 RMK AO2 T01200113
Loading
Personal Weather Stations






























Interactive Weather Map New forecast layout! Learn more

10-Day Weather Forecast

Advertisements
Track Severe Weather on mobile